createdAt,value
2023-10-19T00:01:35.011Z,88.80
2023-10-19T00:06:37.696Z,89.10
2023-10-19T00:11:41.672Z,88.49
2023-10-19T00:16:45.620Z,88.73
2023-10-19T00:21:55.963Z,89.08
2023-10-19T00:26:57.361Z,88.95
2023-10-19T00:31:59.484Z,88.84
2023-10-19T00:37:08.681Z,89.17
2023-10-19T00:42:10.896Z,89.26
2023-10-19T00:47:16.034Z,89.38
2023-10-19T00:52:21.014Z,89.43
2023-10-19T00:57:33.273Z,90.07
2023-10-19T01:02:35.388Z,89.89
2023-10-19T01:07:39.836Z,90.22
2023-10-19T01:12:44.501Z,90.79
2023-10-19T01:17:47.273Z,90.96
2023-10-19T01:22:54.896Z,91.53
2023-10-19T01:27:58.870Z,91.74
2023-10-19T01:33:00.372Z,91.42
2023-10-19T01:38:01.803Z,91.73
2023-10-19T01:43:03.565Z,91.71
2023-10-19T01:48:05.145Z,91.84
2023-10-19T01:53:16.628Z,92.13
2023-10-19T01:58:18.196Z,92.14
2023-10-19T02:03:22.077Z,92.25
2023-10-19T02:08:26.577Z,92.35
2023-10-19T02:13:28.042Z,91.69
2023-10-19T02:18:29.572Z,92.11
2023-10-19T02:23:30.926Z,92.15
2023-10-19T02:28:32.994Z,92.10
2023-10-19T02:33:34.554Z,92.14
2023-10-19T02:38:36.679Z,92.52
2023-10-19T02:43:38.955Z,92.42
2023-10-19T02:48:45.384Z,92.42
2023-10-19T02:53:47.920Z,92.14
2023-10-19T02:58:52.361Z,92.00
2023-10-19T03:03:56.047Z,91.66
2023-10-19T03:09:02.218Z,91.39
2023-10-19T03:14:06.167Z,91.33
2023-10-19T03:19:08.913Z,91.49
2023-10-19T03:24:15.111Z,91.55
2023-10-19T03:29:24.202Z,91.00
2023-10-19T03:34:25.780Z,91.19
2023-10-19T03:39:27.346Z,91.40
2023-10-19T03:44:40.211Z,91.31
2023-10-19T03:49:42.291Z,91.02
2023-10-19T03:54:44.282Z,90.98
2023-10-19T03:59:47.035Z,91.06
2023-10-19T04:04:53.432Z,90.97
2023-10-19T04:10:07.854Z,91.16
2023-10-19T04:15:12.227Z,90.57
2023-10-19T04:20:17.573Z,90.62
2023-10-19T04:25:27.097Z,89.70
2023-10-19T04:30:29.015Z,89.62
2023-10-19T04:35:35.368Z,89.70
2023-10-19T04:40:37.142Z,89.72
2023-10-19T04:45:40.545Z,89.50
2023-10-19T04:50:42.991Z,89.68
2023-10-19T04:55:46.557Z,89.64
2023-10-19T05:00:47.924Z,89.07
2023-10-19T05:05:49.313Z,89.06
2023-10-19T05:10:50.778Z,89.49
2023-10-19T05:15:54.198Z,89.00
2023-10-19T05:20:58.550Z,89.31
2023-10-19T05:26:04.188Z,89.97
2023-10-19T05:31:05.697Z,89.44
2023-10-19T05:36:07.237Z,89.74
2023-10-19T05:41:08.794Z,90.24
2023-10-19T05:46:11.805Z,90.28
2023-10-19T05:51:15.570Z,89.78
2023-10-19T05:56:18.106Z,90.40
2023-10-19T06:01:19.748Z,90.20
2023-10-19T06:06:21.271Z,90.02
2023-10-19T06:11:23.328Z,90.25
2023-10-19T06:16:25.164Z,90.54
2023-10-19T06:21:26.635Z,90.30
2023-10-19T06:26:28.080Z,91.12
2023-10-19T06:31:30.576Z,91.25
2023-10-19T06:36:32.345Z,90.79
2023-10-19T06:41:33.835Z,91.83
2023-10-19T06:46:37.161Z,90.93
2023-10-19T06:51:38.784Z,90.98
2023-10-19T06:56:40.245Z,90.85
2023-10-19T07:01:41.687Z,90.63
2023-10-19T07:06:43.133Z,90.91
2023-10-19T07:11:45.782Z,90.80
2023-10-19T07:16:47.202Z,91.08
2023-10-19T07:21:49.811Z,90.81
2023-10-19T07:27:03.054Z,90.38
2023-10-19T07:32:05.509Z,90.91
2023-10-19T07:37:08.337Z,90.67
2023-10-19T07:42:09.722Z,90.85
2023-10-19T07:47:13.191Z,91.09
2023-10-19T07:52:15.573Z,91.60
2023-10-19T07:57:16.948Z,91.77
2023-10-19T08:02:18.788Z,91.97
2023-10-19T08:07:20.584Z,92.04
2023-10-19T08:12:23.257Z,92.24
2023-10-19T08:17:24.612Z,91.87
2023-10-19T08:22:28.149Z,92.01
2023-10-19T08:27:30.240Z,91.81
2023-10-19T08:32:33.780Z,92.47
2023-10-19T08:37:35.587Z,92.27
2023-10-19T08:42:37.705Z,92.51
2023-10-19T08:47:41.887Z,92.55
2023-10-19T08:52:44.165Z,92.38
2023-10-19T08:57:46.383Z,92.44
2023-10-19T09:02:47.790Z,93.31
2023-10-19T09:08:01.136Z,93.40
2023-10-19T09:13:10.063Z,93.68
2023-10-19T09:18:17.814Z,94.36
2023-10-19T09:23:22.232Z,94.79
2023-10-19T09:28:25.233Z,94.85
2023-10-19T09:33:27.799Z,94.88
2023-10-19T09:38:29.243Z,95.05
2023-10-19T09:43:40.185Z,94.93
2023-10-19T09:48:46.646Z,94.81
2023-10-19T09:53:54.458Z,94.73
2023-10-19T09:59:03.194Z,95.29
2023-10-19T10:04:07.097Z,95.14
2023-10-19T10:09:12.800Z,94.68
2023-10-19T10:14:22.532Z,95.26
2023-10-19T10:19:25.663Z,95.56
2023-10-19T10:24:27.062Z,95.22
2023-10-19T10:29:29.219Z,95.62
2023-10-19T10:34:43.635Z,95.58
2023-10-19T10:39:46.136Z,96.12
2023-10-19T10:44:48.982Z,96.70
2023-10-19T10:49:51.345Z,96.66
2023-10-19T10:54:53.525Z,97.26
2023-10-19T11:00:05.257Z,97.39
2023-10-19T11:05:08.471Z,97.08
2023-10-19T11:10:11.168Z,97.50
2023-10-19T11:15:12.580Z,97.82
2023-10-19T11:20:21.966Z,98.34
2023-10-19T11:25:23.420Z,98.65
2023-10-19T11:30:25.853Z,98.11
2023-10-19T11:35:28.641Z,97.66
2023-10-19T11:40:30.076Z,97.70
2023-10-19T11:45:31.599Z,97.94
2023-10-19T11:50:33.014Z,97.32
2023-10-19T11:55:34.419Z,97.72
2023-10-19T12:00:38.966Z,98.02
2023-10-19T12:05:40.530Z,97.64
2023-10-19T12:10:42.001Z,97.37
2023-10-19T12:15:46.970Z,97.92
2023-10-19T12:20:48.591Z,97.86
2023-10-19T12:25:57.850Z,98.32
2023-10-19T12:30:59.570Z,98.66
2023-10-19T12:36:01.039Z,98.04
2023-10-19T12:41:03.712Z,98.00
2023-10-19T12:46:05.178Z,97.80
2023-10-19T12:51:10.122Z,98.39
2023-10-19T12:56:11.796Z,98.12
2023-10-19T13:01:20.045Z,97.92
2023-10-19T13:06:21.549Z,98.82
2023-10-19T13:11:24.647Z,99.85
2023-10-19T13:16:26.442Z,99.05
2023-10-19T13:21:33.507Z,98.50
2023-10-19T13:26:35.525Z,98.36
2023-10-19T13:31:37.011Z,98.57
2023-10-19T13:36:39.994Z,98.43
2023-10-19T13:41:41.396Z,98.51
2023-10-19T13:46:42.889Z,99.33
2023-10-19T13:51:44.256Z,98.71
2023-10-19T13:56:46.450Z,97.57
2023-10-19T14:01:47.904Z,98.19
2023-10-19T14:06:50.881Z,98.18
2023-10-19T14:11:52.419Z,97.62
2023-10-19T14:16:54.047Z,98.05
2023-10-19T14:21:55.467Z,97.87
2023-10-19T14:26:56.991Z,98.15
2023-10-19T14:31:58.483Z,98.26
2023-10-19T14:36:59.912Z,98.04
2023-10-19T14:42:01.837Z,98.12
2023-10-19T14:47:05.343Z,97.75
2023-10-19T14:52:06.794Z,97.60
2023-10-19T14:57:08.982Z,97.20
2023-10-19T15:02:13.744Z,97.12
2023-10-19T15:07:15.278Z,97.02
2023-10-19T15:12:16.746Z,96.79
2023-10-19T15:17:18.296Z,96.74
2023-10-19T15:22:19.898Z,95.93
2023-10-19T15:27:21.459Z,96.15
2023-10-19T15:32:23.592Z,95.64
2023-10-19T15:37:25.255Z,95.35
2023-10-19T15:42:27.045Z,94.80
2023-10-19T15:47:28.785Z,95.07
2023-10-19T15:52:33.018Z,95.08
2023-10-19T15:57:35.072Z,94.53
2023-10-19T16:02:36.622Z,94.42
2023-10-19T16:07:40.643Z,93.99
2023-10-19T16:12:46.219Z,94.19
2023-10-19T16:17:49.534Z,94.32
2023-10-19T16:22:52.992Z,93.80
2023-10-19T16:27:55.388Z,94.38
2023-10-19T16:32:57.890Z,94.51
2023-10-19T16:38:00.619Z,94.38
2023-10-19T16:43:12.217Z,94.15
2023-10-19T16:48:41.604Z,94.12
2023-10-19T16:53:45.462Z,93.57
2023-10-19T16:58:57.583Z,93.67
2023-10-19T17:03:59.645Z,93.81
2023-10-19T17:09:08.687Z,93.79
2023-10-19T17:14:10.679Z,94.04
2023-10-19T17:19:12.198Z,94.02
2023-10-19T17:24:13.537Z,94.10
2023-10-19T17:29:14.895Z,94.11
2023-10-19T17:34:16.280Z,94.15
2023-10-19T17:39:17.756Z,94.20
2023-10-19T17:44:28.153Z,93.86
2023-10-19T17:49:34.443Z,93.72
2023-10-19T17:55:21.406Z,93.61
2023-10-19T18:00:22.858Z,93.95
2023-10-19T18:05:25.355Z,93.77
2023-10-19T18:10:29.790Z,94.19
2023-10-19T18:15:32.614Z,93.61
2023-10-19T18:20:36.020Z,93.46
2023-10-19T18:25:43.160Z,93.30
2023-10-19T18:30:45.504Z,93.25
2023-10-19T18:35:51.167Z,93.34
2023-10-19T18:40:58.229Z,93.58
2023-10-19T18:46:00.464Z,93.69
2023-10-19T18:51:02.147Z,93.88
2023-10-19T18:56:04.474Z,94.21
2023-10-19T19:01:06.683Z,93.54
2023-10-19T19:06:08.274Z,93.17
2023-10-19T19:11:17.355Z,93.48
2023-10-19T19:16:19.916Z,93.29
2023-10-19T19:21:24.611Z,93.54
2023-10-19T19:26:31.007Z,93.58
2023-10-19T19:31:38.915Z,93.31
2023-10-19T19:36:41.356Z,93.28
2023-10-19T19:41:43.995Z,93.66
2023-10-19T19:46:45.772Z,93.61
2023-10-19T19:51:47.260Z,93.90
2023-10-19T19:56:50.431Z,93.76
2023-10-19T20:01:52.011Z,93.93
2023-10-19T20:06:53.820Z,93.93
2023-10-19T20:11:55.435Z,93.79
2023-10-19T20:16:57.151Z,93.76
2023-10-19T20:21:58.751Z,93.74
2023-10-19T20:27:00.240Z,93.39
2023-10-19T20:32:02.163Z,93.71
2023-10-19T20:37:03.671Z,93.72
2023-10-19T20:42:08.014Z,93.92
2023-10-19T20:47:10.052Z,94.01
2023-10-19T20:52:11.701Z,93.94
2023-10-19T20:57:13.174Z,94.03
2023-10-19T21:02:14.913Z,93.44
2023-10-19T21:07:18.714Z,93.40
2023-10-19T21:12:20.162Z,93.47
2023-10-19T21:17:21.571Z,93.60
2023-10-19T21:22:22.966Z,93.74
2023-10-19T21:27:24.347Z,93.60
2023-10-19T21:32:25.987Z,93.77
2023-10-19T21:37:27.474Z,93.99
2023-10-19T21:42:28.866Z,94.10
2023-10-19T21:47:31.408Z,94.06
2023-10-19T21:52:32.891Z,94.28
2023-10-19T21:57:34.967Z,94.10
2023-10-19T22:02:41.414Z,94.09
2023-10-19T22:07:46.780Z,94.45
2023-10-19T22:12:52.230Z,94.43
2023-10-19T22:17:53.648Z,94.56
2023-10-19T22:22:55.354Z,94.28
2023-10-19T22:27:56.856Z,94.51
2023-10-19T22:32:58.306Z,94.19
2023-10-19T22:37:59.711Z,94.54
2023-10-19T22:43:01.173Z,94.25
2023-10-19T22:48:03.568Z,94.53
2023-10-19T22:53:05.370Z,94.04
2023-10-19T22:58:06.988Z,93.93
2023-10-19T23:03:10.143Z,94.42
2023-10-19T23:08:13.261Z,94.53
2023-10-19T23:13:18.215Z,94.70
2023-10-19T23:18:19.703Z,94.49
2023-10-19T23:23:22.982Z,94.50
2023-10-19T23:28:24.564Z,94.79
2023-10-19T23:33:25.984Z,93.95
2023-10-19T23:38:27.891Z,93.93
2023-10-19T23:43:31.588Z,94.68
2023-10-19T23:48:32.995Z,94.66
2023-10-19T23:53:34.522Z,94.25
2023-10-19T23:58:35.961Z,94.29
